sensor_id;sensor_type;location;lat;lon;timestamp;pressure;altitude;pressure_sealevel;temperature;humidity
41140;BME280;26881;48.784;9.192;2024-01-30T00:00:57;99949.38;;;3.28;91.10
41140;BME280;26881;48.784;9.192;2024-01-30T00:06:19;99945.97;;;3.23;91.35
41140;BME280;26881;48.784;9.192;2024-01-30T00:11:42;99939.94;;;3.21;91.59
41140;BME280;26881;48.784;9.192;2024-01-30T00:17:04;99940.91;;;3.12;91.31
41140;BME280;26881;48.784;9.192;2024-01-30T00:22:26;99946.00;;;3.19;90.94
41140;BME280;26881;48.784;9.192;2024-01-30T00:27:48;99939.22;;;3.02;93.21
41140;BME280;26881;48.784;9.192;2024-01-30T00:33:10;99941.88;;;2.93;94.10
41140;BME280;26881;48.784;9.192;2024-01-30T00:38:32;99937.56;;;2.92;94.38
41140;BME280;26881;48.784;9.192;2024-01-30T00:43:54;99947.00;;;2.99;94.36
41140;BME280;26881;48.784;9.192;2024-01-30T00:49:16;99940.13;;;2.97;93.98
41140;BME280;26881;48.784;9.192;2024-01-30T00:54:38;99947.09;;;2.81;95.77
41140;BME280;26881;48.784;9.192;2024-01-30T01:00:00;99946.28;;;2.76;96.47
41140;BME280;26881;48.784;9.192;2024-01-30T01:05:22;99953.13;;;2.81;96.57
41140;BME280;26881;48.784;9.192;2024-01-30T01:10:43;99945.38;;;2.80;96.44
41140;BME280;26881;48.784;9.192;2024-01-30T01:16:05;99953.13;;;2.83;95.89
41140;BME280;26881;48.784;9.192;2024-01-30T01:21:27;99952.22;;;2.88;95.50
41140;BME280;26881;48.784;9.192;2024-01-30T01:26:49;99950.53;;;2.81;96.51
41140;BME280;26881;48.784;9.192;2024-01-30T01:32:11;99953.97;;;2.83;96.13
41140;BME280;26881;48.784;9.192;2024-01-30T01:37:33;99943.66;;;2.79;96.47
41140;BME280;26881;48.784;9.192;2024-01-30T01:42:55;99940.22;;;2.80;96.55
41140;BME280;26881;48.784;9.192;2024-01-30T01:48:17;99949.75;;;2.71;96.89
41140;BME280;26881;48.784;9.192;2024-01-30T01:53:39;99940.31;;;2.66;97.16
41140;BME280;26881;48.784;9.192;2024-01-30T01:59:05;99942.88;;;2.69;97.26
41140;BME280;26881;48.784;9.192;2024-01-30T02:04:29;99942.88;;;2.70;97.58
41140;BME280;26881;48.784;9.192;2024-01-30T02:09:51;99947.16;;;2.70;97.19
41140;BME280;26881;48.784;9.192;2024-01-30T02:15:13;99943.75;;;2.65;97.30
41140;BME280;26881;48.784;9.192;2024-01-30T02:20:36;99936.94;;;2.50;97.43
41140;BME280;26881;48.784;9.192;2024-01-30T02:25:59;99948.16;;;2.37;99.21
41140;BME280;26881;48.784;9.192;2024-01-30T02:31:21;99942.16;;;2.36;99.76
41140;BME280;26881;48.784;9.192;2024-01-30T02:36:43;99943.84;;;2.39;100.00
41140;BME280;26881;48.784;9.192;2024-01-30T02:42:05;99949.88;;;2.38;100.00
41140;BME280;26881;48.784;9.192;2024-01-30T02:47:27;99948.13;;;2.44;100.00
41140;BME280;26881;48.784;9.192;2024-01-30T02:52:49;99946.41;;;2.49;99.01
41140;BME280;26881;48.784;9.192;2024-01-30T02:58:11;99939.56;;;2.36;99.32
41140;BME280;26881;48.784;9.192;2024-01-30T03:03:33;99938.72;;;2.31;100.00
41140;BME280;26881;48.784;9.192;2024-01-30T03:08:57;99936.16;;;2.26;100.00
41140;BME280;26881;48.784;9.192;2024-01-30T03:14:18;99938.72;;;2.28;99.85
41140;BME280;26881;48.784;9.192;2024-01-30T03:19:40;99931.03;;;2.14;100.00
41140;BME280;26881;48.784;9.192;2024-01-30T03:25:02;99943.13;;;2.01;100.00
41140;BME280;26881;48.784;9.192;2024-01-30T03:30:24;99943.97;;;1.93;100.00
41140;BME280;26881;48.784;9.192;2024-01-30T03:35:46;99943.13;;;1.90;100.00
41140;BME280;26881;48.784;9.192;2024-01-30T03:41:08;99938.81;;;1.97;100.00
41140;BME280;26881;48.784;9.192;2024-01-30T03:46:31;99945.69;;;1.95;100.00
41140;BME280;26881;48.784;9.192;2024-01-30T03:51:53;99942.28;;;1.87;100.00
41140;BME280;26881;48.784;9.192;2024-01-30T03:57:15;99954.31;;;1.83;100.00
41140;BME280;26881;48.784;9.192;2024-01-30T04:02:37;99948.31;;;1.81;100.00
41140;BME280;26881;48.784;9.192;2024-01-30T04:07:59;99954.31;;;1.94;100.00
41140;BME280;26881;48.784;9.192;2024-01-30T04:13:21;99952.59;;;1.90;100.00
41140;BME280;26881;48.784;9.192;2024-01-30T04:18:43;99954.31;;;1.88;100.00
41140;BME280;26881;48.784;9.192;2024-01-30T04:24:05;99949.16;;;1.79;100.00
41140;BME280;26881;48.784;9.192;2024-01-30T04:29:27;99941.44;;;1.71;100.00
41140;BME280;26881;48.784;9.192;2024-01-30T04:34:48;99947.47;;;1.67;100.00
41140;BME280;26881;48.784;9.192;2024-01-30T04:40:11;99938.00;;;1.75;100.00
41140;BME280;26881;48.784;9.192;2024-01-30T04:45:33;99935.44;;;1.71;100.00
41140;BME280;26881;48.784;9.192;2024-01-30T04:50:55;99950.91;;;1.69;100.00
41140;BME280;26881;48.784;9.192;2024-01-30T04:56:17;99952.59;;;1.61;100.00
41140;BME280;26881;48.784;9.192;2024-01-30T05:01:39;99950.03;;;1.75;100.00
41140;BME280;26881;48.784;9.192;2024-01-30T05:07:01;99948.31;;;1.75;100.00
41140;BME280;26881;48.784;9.192;2024-01-30T05:12:24;99959.50;;;1.65;100.00
41140;BME280;26881;48.784;9.192;2024-01-30T05:17:45;99951.75;;;1.71;100.00
41140;BME280;26881;48.784;9.192;2024-01-30T05:23:07;99961.22;;;1.66;100.00
41140;BME280;26881;48.784;9.192;2024-01-30T05:28:29;99963.81;;;1.57;100.00
41140;BME280;26881;48.784;9.192;2024-01-30T05:33:51;99955.19;;;1.48;100.00
41140;BME280;26881;48.784;9.192;2024-01-30T05:39:13;99964.66;;;1.48;100.00
41140;BME280;26881;48.784;9.192;2024-01-30T05:44:36;99960.34;;;1.58;100.00
41140;BME280;26881;48.784;9.192;2024-01-30T05:49:57;99969.84;;;1.59;100.00
41140;BME280;26881;48.784;9.192;2024-01-30T05:55:19;99969.81;;;1.56;100.00
41140;BME280;26881;48.784;9.192;2024-01-30T06:00:42;99971.53;;;1.52;100.00
41140;BME280;26881;48.784;9.192;2024-01-30T06:06:04;99975.84;;;1.55;100.00
41140;BME280;26881;48.784;9.192;2024-01-30T06:11:26;99980.13;;;1.62;100.00
41140;BME280;26881;48.784;9.192;2024-01-30T06:16:48;99969.81;;;1.57;100.00
41140;BME280;26881;48.784;9.192;2024-01-30T06:22:10;99973.25;;;1.58;100.00
41140;BME280;26881;48.784;9.192;2024-01-30T06:27:33;99973.28;;;1.47;100.00
41140;BME280;26881;48.784;9.192;2024-01-30T06:32:55;99983.59;;;1.47;100.00
41140;BME280;26881;48.784;9.192;2024-01-30T06:38:17;99974.97;;;1.45;100.00
41140;BME280;26881;48.784;9.192;2024-01-30T06:43:38;99981.00;;;1.42;100.00
41140;BME280;26881;48.784;9.192;2024-01-30T06:49:00;99974.13;;;1.38;100.00
41140;BME280;26881;48.784;9.192;2024-01-30T06:54:23;99974.09;;;1.29;100.00
41140;BME280;26881;48.784;9.192;2024-01-30T06:59:44;99974.09;;;1.34;100.00
41140;BME280;26881;48.784;9.192;2024-01-30T07:05:07;99986.16;;;1.42;100.00
41140;BME280;26881;48.784;9.192;2024-01-30T07:10:29;99986.13;;;1.35;100.00
41140;BME280;26881;48.784;9.192;2024-01-30T07:15:51;99990.44;;;1.46;100.00
41140;BME280;26881;48.784;9.192;2024-01-30T07:21:12;99991.31;;;1.55;100.00
41140;BME280;26881;48.784;9.192;2024-01-30T07:26:34;99986.16;;;1.62;100.00
41140;BME280;26881;48.784;9.192;2024-01-30T07:31:57;99993.00;;;1.74;100.00
41140;BME280;26881;48.784;9.192;2024-01-30T07:37:19;99988.72;;;1.79;100.00
41140;BME280;26881;48.784;9.192;2024-01-30T07:42:42;99991.31;;;1.92;100.00
41140;BME280;26881;48.784;9.192;2024-01-30T07:48:07;99994.72;;;1.97;100.00
41140;BME280;26881;48.784;9.192;2024-01-30T07:53:29;99998.16;;;2.02;100.00
41140;BME280;26881;48.784;9.192;2024-01-30T07:58:51;100000.72;;;2.22;100.00
41140;BME280;26881;48.784;9.192;2024-01-30T08:04:13;99996.38;;;2.35;99.98
41140;BME280;26881;48.784;9.192;2024-01-30T08:09:34;100002.31;;;2.58;99.22
41140;BME280;26881;48.784;9.192;2024-01-30T08:14:56;99995.34;;;2.80;97.88
41140;BME280;26881;48.784;9.192;2024-01-30T08:20:18;99995.22;;;3.00;94.98
41140;BME280;26881;48.784;9.192;2024-01-30T08:25:40;99994.19;;;3.30;93.36
41140;BME280;26881;48.784;9.192;2024-01-30T08:31:02;99992.25;;;3.58;89.77
41140;BME280;26881;48.784;9.192;2024-01-30T08:36:25;99995.50;;;3.85;86.63
41140;BME280;26881;48.784;9.192;2024-01-30T08:41:46;99989.09;;;4.21;85.47
41140;BME280;26881;48.784;9.192;2024-01-30T08:47:08;99990.56;;;4.46;82.98
41140;BME280;26881;48.784;9.192;2024-01-30T08:52:30;99997.09;;;4.77;80.69
41140;BME280;26881;48.784;9.192;2024-01-30T08:57:52;99996.06;;;4.92;77.98
41140;BME280;26881;48.784;9.192;2024-01-30T09:03:17;99993.22;;;5.09;76.39
41140;BME280;26881;48.784;9.192;2024-01-30T09:08:39;100001.41;;;5.42;74.75
41140;BME280;26881;48.784;9.192;2024-01-30T09:14:01;100005.59;;;5.49;73.27
41140;BME280;26881;48.784;9.192;2024-01-30T09:19:23;100013.03;;;5.74;73.28
41140;BME280;26881;48.784;9.192;2024-01-30T09:24:44;100011.25;;;6.27;70.55
41140;BME280;26881;48.784;9.192;2024-01-30T09:30:07;100006.28;;;6.61;69.03
41140;BME280;26881;48.784;9.192;2024-01-30T09:35:29;100002.81;;;7.03;67.54
41140;BME280;26881;48.784;9.192;2024-01-30T09:40:54;99998.16;;;7.56;65.52
41140;BME280;26881;48.784;9.192;2024-01-30T09:46:21;100000.59;;;7.98;64.01
41140;BME280;26881;48.784;9.192;2024-01-30T09:51:45;100000.03;;;8.18;63.14
41140;BME280;26881;48.784;9.192;2024-01-30T09:57:07;100001.28;;;8.70;61.27
41140;BME280;26881;48.784;9.192;2024-01-30T10:02:31;100003.69;;;9.62;58.30
41140;BME280;26881;48.784;9.192;2024-01-30T10:07:54;99997.09;;;11.03;53.70
41140;BME280;26881;48.784;9.192;2024-01-30T10:13:20;99996.69;;;10.90;51.44
41140;BME280;26881;48.784;9.192;2024-01-30T10:18:42;100001.75;;;10.21;53.67
41140;BME280;26881;48.784;9.192;2024-01-30T10:24:05;99995.16;;;10.61;53.26
41140;BME280;26881;48.784;9.192;2024-01-30T10:29:28;99988.75;;;11.15;51.72
41140;BME280;26881;48.784;9.192;2024-01-30T10:34:50;99982.41;;;10.75;52.96
41140;BME280;26881;48.784;9.192;2024-01-30T10:40:15;99984.88;;;10.31;53.79
41140;BME280;26881;48.784;9.192;2024-01-30T10:45:40;99981.09;;;10.13;54.48
41140;BME280;26881;48.784;9.192;2024-01-30T10:51:03;99975.00;;;9.87;55.04
41140;BME280;26881;48.784;9.192;2024-01-30T10:56:26;99967.41;;;10.31;54.67
41140;BME280;26881;48.784;9.192;2024-01-30T11:01:49;99964.41;;;10.17;55.15
41140;BME280;26881;48.784;9.192;2024-01-30T11:07:23;99967.31;;;10.58;54.52
41140;BME280;26881;48.784;9.192;2024-01-30T11:12:46;99961.38;;;11.00;53.66
41140;BME280;26881;48.784;9.192;2024-01-30T11:18:08;99950.88;;;11.24;51.83
41140;BME280;26881;48.784;9.192;2024-01-30T11:23:32;99950.44;;;11.56;51.70
41140;BME280;26881;48.784;9.192;2024-01-30T11:28:55;99948.44;;;11.41;51.54
41140;BME280;26881;48.784;9.192;2024-01-30T11:34:18;99960.84;;;10.92;53.07
41140;BME280;26881;48.784;9.192;2024-01-30T11:39:41;99951.75;;;10.79;54.04
41140;BME280;26881;48.784;9.192;2024-01-30T11:45:05;99940.03;;;11.11;53.64
41140;BME280;26881;48.784;9.192;2024-01-30T11:50:27;99945.66;;;11.24;53.09
41140;BME280;26881;48.784;9.192;2024-01-30T11:55:50;99935.84;;;11.29;53.08
41140;BME280;26881;48.784;9.192;2024-01-30T12:01:12;99921.91;;;11.49;53.28
41140;BME280;26881;48.784;9.192;2024-01-30T12:06:34;99919.13;;;11.74;52.90
41140;BME280;26881;48.784;9.192;2024-01-30T12:11:56;99918.94;;;11.78;53.12
41140;BME280;26881;48.784;9.192;2024-01-30T12:17:30;99903.00;;;11.63;53.05
41140;BME280;26881;48.784;9.192;2024-01-30T12:22:52;99908.38;;;11.59;53.43
41140;BME280;26881;48.784;9.192;2024-01-30T12:28:15;99890.94;;;11.79;51.34
41140;BME280;26881;48.784;9.192;2024-01-30T12:33:37;99892.53;;;11.63;51.91
41140;BME280;26881;48.784;9.192;2024-01-30T12:38:59;99885.88;;;11.96;51.63
41140;BME280;26881;48.784;9.192;2024-01-30T12:44:22;99888.53;;;12.15;52.23
41140;BME280;26881;48.784;9.192;2024-01-30T12:49:44;99884.22;;;12.90;51.24
41140;BME280;26881;48.784;9.192;2024-01-30T12:55:06;99882.34;;;13.82;48.99
41140;BME280;26881;48.784;9.192;2024-01-30T13:00:28;99880.19;;;14.40;46.57
41140;BME280;26881;48.784;9.192;2024-01-30T13:05:50;99885.69;;;14.02;46.73
41140;BME280;26881;48.784;9.192;2024-01-30T13:11:12;99887.97;;;13.75;47.92
41140;BME280;26881;48.784;9.192;2024-01-30T13:16:42;99893.59;;;13.84;47.02
41140;BME280;26881;48.784;9.192;2024-01-30T13:22:06;99876.13;;;16.18;43.79
41140;BME280;26881;48.784;9.192;2024-01-30T13:27:27;99863.53;;;17.86;39.58
41140;BME280;26881;48.784;9.192;2024-01-30T13:32:49;99870.81;;;16.47;41.71
41140;BME280;26881;48.784;9.192;2024-01-30T13:38:11;99870.09;;;15.57;42.35
41140;BME280;26881;48.784;9.192;2024-01-30T13:43:33;99871.16;;;15.39;42.71
41140;BME280;26881;48.784;9.192;2024-01-30T13:48:55;99874.34;;;14.50;44.99
41140;BME280;26881;48.784;9.192;2024-01-30T13:54:17;99880.53;;;14.49;45.83
41140;BME280;26881;48.784;9.192;2024-01-30T13:59:39;99869.72;;;14.56;45.07
41140;BME280;26881;48.784;9.192;2024-01-30T14:05:03;99875.13;;;14.84;45.37
41140;BME280;26881;48.784;9.192;2024-01-30T14:10:26;99880.16;;;14.57;45.99
41140;BME280;26881;48.784;9.192;2024-01-30T14:15:48;99877.34;;;13.94;46.70
41140;BME280;26881;48.784;9.192;2024-01-30T14:21:13;99878.53;;;13.70;47.72
41140;BME280;26881;48.784;9.192;2024-01-30T14:26:36;99885.28;;;13.41;48.29
41140;BME280;26881;48.784;9.192;2024-01-30T14:31:58;99893.78;;;13.10;49.12
41140;BME280;26881;48.784;9.192;2024-01-30T14:37:20;99895.66;;;12.70;49.98
41140;BME280;26881;48.784;9.192;2024-01-30T14:42:43;99905.72;;;12.41;50.01
41140;BME280;26881;48.784;9.192;2024-01-30T14:48:05;99907.59;;;12.19;50.67
41140;BME280;26881;48.784;9.192;2024-01-30T14:53:27;99912.19;;;11.93;51.39
41140;BME280;26881;48.784;9.192;2024-01-30T14:58:49;99923.84;;;11.66;52.03
41140;BME280;26881;48.784;9.192;2024-01-30T15:04:11;99936.78;;;11.48;52.57
41140;BME280;26881;48.784;9.192;2024-01-30T15:09:33;99933.66;;;11.40;52.57
41140;BME280;26881;48.784;9.192;2024-01-30T15:14:55;99946.50;;;11.24;53.19
41140;BME280;26881;48.784;9.192;2024-01-30T15:20:17;99949.88;;;11.04;55.21
41140;BME280;26881;48.784;9.192;2024-01-30T15:25:40;99947.88;;;10.89;56.70
41140;BME280;26881;48.784;9.192;2024-01-30T15:31:02;99958.06;;;10.73;58.45
41140;BME280;26881;48.784;9.192;2024-01-30T15:36:24;99970.00;;;10.57;59.31
41140;BME280;26881;48.784;9.192;2024-01-30T15:41:46;99970.88;;;10.32;62.07
41140;BME280;26881;48.784;9.192;2024-01-30T15:47:08;99979.44;;;10.10;62.39
41140;BME280;26881;48.784;9.192;2024-01-30T15:52:30;99979.34;;;9.88;64.70
41140;BME280;26881;48.784;9.192;2024-01-30T15:57:52;99992.13;;;9.69;64.79
41140;BME280;26881;48.784;9.192;2024-01-30T16:03:14;99989.19;;;9.54;67.04
41140;BME280;26881;48.784;9.192;2024-01-30T16:08:36;100003.91;;;9.28;68.67
41140;BME280;26881;48.784;9.192;2024-01-30T16:13:58;100007.69;;;9.18;69.46
41140;BME280;26881;48.784;9.192;2024-01-30T16:19:20;100013.72;;;9.20;70.03
41140;BME280;26881;48.784;9.192;2024-01-30T16:24:43;100012.34;;;9.08;70.38
41140;BME280;26881;48.784;9.192;2024-01-30T16:30:05;100012.84;;;8.91;71.41
41140;BME280;26881;48.784;9.192;2024-01-30T16:35:27;100017.78;;;8.71;72.80
41140;BME280;26881;48.784;9.192;2024-01-30T16:41:07;100024.34;;;8.53;74.17
41140;BME280;26881;48.784;9.192;2024-01-30T16:46:29;100019.44;;;8.42;74.83
41140;BME280;26881;48.784;9.192;2024-01-30T16:51:52;100019.47;;;8.40;74.04
41140;BME280;26881;48.784;9.192;2024-01-30T16:57:14;100014.81;;;8.53;73.28
41140;BME280;26881;48.784;9.192;2024-01-30T17:02:35;100013.22;;;8.46;73.12
41140;BME280;26881;48.784;9.192;2024-01-30T17:07:57;100019.00;;;8.24;75.12
41140;BME280;26881;48.784;9.192;2024-01-30T17:13:25;100019.69;;;8.31;74.74
41140;BME280;26881;48.784;9.192;2024-01-30T17:18:47;100031.75;;;8.35;73.45
41140;BME280;26881;48.784;9.192;2024-01-30T17:24:09;100021.47;;;8.29;72.90
41140;BME280;26881;48.784;9.192;2024-01-30T17:29:32;100041.94;;;8.10;73.45
41140;BME280;26881;48.784;9.192;2024-01-30T17:34:55;100043.25;;;8.27;71.58
41140;BME280;26881;48.784;9.192;2024-01-30T17:40:17;100041.38;;;8.32;70.67
41140;BME280;26881;48.784;9.192;2024-01-30T17:45:40;100049.41;;;8.24;70.68
41140;BME280;26881;48.784;9.192;2024-01-30T17:51:02;100068.81;;;8.14;71.44
41140;BME280;26881;48.784;9.192;2024-01-30T17:56:24;100078.66;;;8.01;72.31
41140;BME280;26881;48.784;9.192;2024-01-30T18:01:47;100085.59;;;8.02;70.80
41140;BME280;26881;48.784;9.192;2024-01-30T18:07:09;100073.03;;;8.18;69.92
41140;BME280;26881;48.784;9.192;2024-01-30T18:12:33;100079.06;;;8.20;69.62
41140;BME280;26881;48.784;9.192;2024-01-30T18:17:55;100079.03;;;8.21;69.88
41140;BME280;26881;48.784;9.192;2024-01-30T18:23:18;100084.25;;;8.20;70.16
41140;BME280;26881;48.784;9.192;2024-01-30T18:28:40;100081.72;;;8.18;69.60
41140;BME280;26881;48.784;9.192;2024-01-30T18:34:02;100098.28;;;8.16;70.10
41140;BME280;26881;48.784;9.192;2024-01-30T18:39:24;100093.22;;;8.10;70.46
41140;BME280;26881;48.784;9.192;2024-01-30T18:44:45;100093.25;;;8.08;70.88
41140;BME280;26881;48.784;9.192;2024-01-30T18:50:07;100097.56;;;8.09;71.07
41140;BME280;26881;48.784;9.192;2024-01-30T18:55:30;100104.56;;;8.07;71.32
41140;BME280;26881;48.784;9.192;2024-01-30T19:00:51;100107.41;;;7.98;72.37
41140;BME280;26881;48.784;9.192;2024-01-30T19:06:14;100100.41;;;8.00;72.98
41140;BME280;26881;48.784;9.192;2024-01-30T19:11:36;100101.00;;;8.11;71.92
41140;BME280;26881;48.784;9.192;2024-01-30T19:16:58;100091.56;;;8.06;72.00
41140;BME280;26881;48.784;9.192;2024-01-30T19:22:20;100087.31;;;8.01;75.08
41140;BME280;26881;48.784;9.192;2024-01-30T19:27:42;100091.47;;;8.10;78.57
41140;BME280;26881;48.784;9.192;2024-01-30T19:33:04;100086.16;;;8.13;76.37
41140;BME280;26881;48.784;9.192;2024-01-30T19:38:26;100081.97;;;8.08;73.91
41140;BME280;26881;48.784;9.192;2024-01-30T19:43:49;100085.59;;;8.02;73.33
41140;BME280;26881;48.784;9.192;2024-01-30T19:49:12;100095.22;;;7.98;74.25
41140;BME280;26881;48.784;9.192;2024-01-30T19:54:34;100103.16;;;7.92;75.64
41140;BME280;26881;48.784;9.192;2024-01-30T19:59:56;100097.97;;;7.92;75.49
41140;BME280;26881;48.784;9.192;2024-01-30T20:05:18;100102.38;;;7.90;75.93
41140;BME280;26881;48.784;9.192;2024-01-30T20:10:40;100107.63;;;7.87;76.26
41140;BME280;26881;48.784;9.192;2024-01-30T20:16:02;100112.09;;;7.82;76.30
41140;BME280;26881;48.784;9.192;2024-01-30T20:21:24;100108.69;;;7.78;76.86
41140;BME280;26881;48.784;9.192;2024-01-30T20:26:46;100114.91;;;7.74;77.29
41140;BME280;26881;48.784;9.192;2024-01-30T20:32:08;100128.13;;;7.64;77.78
41140;BME280;26881;48.784;9.192;2024-01-30T20:37:30;100132.00;;;7.46;79.66
41140;BME280;26881;48.784;9.192;2024-01-30T20:42:52;100125.41;;;7.29;80.92
41140;BME280;26881;48.784;9.192;2024-01-30T20:48:14;100127.47;;;7.13;82.42
41140;BME280;26881;48.784;9.192;2024-01-30T20:53:36;100131.84;;;7.11;83.80
41140;BME280;26881;48.784;9.192;2024-01-30T20:58:58;100146.75;;;7.03;84.75
41140;BME280;26881;48.784;9.192;2024-01-30T21:04:20;100165.41;;;6.79;86.67
41140;BME280;26881;48.784;9.192;2024-01-30T21:09:42;100154.25;;;6.72;87.54
41140;BME280;26881;48.784;9.192;2024-01-30T21:15:05;100157.03;;;6.63;88.59
41140;BME280;26881;48.784;9.192;2024-01-30T21:20:27;100167.59;;;6.53;88.82
41140;BME280;26881;48.784;9.192;2024-01-30T21:25:49;100164.13;;;6.53;89.06
41140;BME280;26881;48.784;9.192;2024-01-30T21:31:11;100163.22;;;6.56;88.70
41140;BME280;26881;48.784;9.192;2024-01-30T21:36:35;100176.91;;;6.67;88.64
41140;BME280;26881;48.784;9.192;2024-01-30T21:41:58;100177.44;;;6.84;87.96
41140;BME280;26881;48.784;9.192;2024-01-30T21:47:24;100169.44;;;6.95;87.35
41140;BME280;26881;48.784;9.192;2024-01-30T21:52:46;100164.94;;;7.03;87.78
41140;BME280;26881;48.784;9.192;2024-01-30T21:58:08;100168.44;;;7.02;87.83
41140;BME280;26881;48.784;9.192;2024-01-30T22:03:30;100179.72;;;7.03;88.82
41140;BME280;26881;48.784;9.192;2024-01-30T22:08:52;100177.97;;;7.03;89.11
41140;BME280;26881;48.784;9.192;2024-01-30T22:14:17;100163.91;;;7.12;89.40
41140;BME280;26881;48.784;9.192;2024-01-30T22:19:39;100163.75;;;7.20;88.53
41140;BME280;26881;48.784;9.192;2024-01-30T22:25:01;100169.72;;;7.25;88.10
41140;BME280;26881;48.784;9.192;2024-01-30T22:30:23;100181.78;;;7.30;87.78
41140;BME280;26881;48.784;9.192;2024-01-30T22:35:45;100193.03;;;7.32;87.67
41140;BME280;26881;48.784;9.192;2024-01-30T22:41:07;100187.91;;;7.28;88.13
41140;BME280;26881;48.784;9.192;2024-01-30T22:46:29;100193.88;;;7.33;87.58
41140;BME280;26881;48.784;9.192;2024-01-30T22:51:51;100204.16;;;7.39;86.78
41140;BME280;26881;48.784;9.192;2024-01-30T22:57:12;100204.94;;;7.43;86.84
41140;BME280;26881;48.784;9.192;2024-01-30T23:02:34;100212.75;;;7.44;87.26
41140;BME280;26881;48.784;9.192;2024-01-30T23:07:56;100205.81;;;7.43;87.45
41140;BME280;26881;48.784;9.192;2024-01-30T23:13:19;100202.38;;;7.41;88.29
41140;BME280;26881;48.784;9.192;2024-01-30T23:18:41;100202.34;;;7.43;87.93
41140;BME280;26881;48.784;9.192;2024-01-30T23:24:03;100205.03;;;7.39;88.68
41140;BME280;26881;48.784;9.192;2024-01-30T23:29:26;100206.72;;;7.42;88.74
41140;BME280;26881;48.784;9.192;2024-01-30T23:34:48;100201.41;;;7.47;88.71
41140;BME280;26881;48.784;9.192;2024-01-30T23:40:12;100203.16;;;7.46;88.85
41140;BME280;26881;48.784;9.192;2024-01-30T23:45:34;100202.25;;;7.47;88.93
41140;BME280;26881;48.784;9.192;2024-01-30T23:50:56;100212.75;;;7.44;90.15
41140;BME280;26881;48.784;9.192;2024-01-30T23:56:19;100210.25;;;7.38;89.76
